sensor_id;sensor_type;location;lat;lon;timestamp;pressure;altitude;pressure_sealevel;temperature
8227;BMP180;4154;48.810;9.012;2022-11-03T01:56:31;97373.00;;;7.10
8227;BMP180;4154;48.810;9.012;2022-11-03T02:06:22;97359.00;;;7.20
8227;BMP180;4154;48.810;9.012;2022-11-03T02:09:17;97365.00;;;7.30
8227;BMP180;4154;48.810;9.012;2022-11-03T02:12:24;97365.00;;;7.30
8227;BMP180;4154;48.810;9.012;2022-11-03T02:15:37;97362.00;;;7.20
8227;BMP180;4154;48.810;9.012;2022-11-03T02:18:48;97348.00;;;7.20
8227;BMP180;4154;48.810;9.012;2022-11-03T02:26:00;97349.00;;;7.10
8227;BMP180;4154;48.810;9.012;2022-11-03T02:29:50;97331.00;;;7.10
8227;BMP180;4154;48.810;9.012;2022-11-03T02:41:03;97318.00;;;7.00
8227;BMP180;4154;48.810;9.012;2022-11-03T02:45:02;97307.00;;;6.90
8227;BMP180;4154;48.810;9.012;2022-11-03T02:48:51;97299.00;;;6.90
8227;BMP180;4154;48.810;9.012;2022-11-03T07:43:29;96982.00;;;7.50
8227;BMP180;4154;48.810;9.012;2022-11-03T07:46:57;96968.00;;;7.50
8227;BMP180;4154;48.810;9.012;2022-11-03T07:49:45;96952.00;;;7.60
8227;BMP180;4154;48.810;9.012;2022-11-03T07:52:37;96966.00;;;7.70
8227;BMP180;4154;48.810;9.012;2022-11-03T07:55:16;96959.00;;;7.70
8227;BMP180;4154;48.810;9.012;2022-11-03T07:58:16;96946.00;;;7.80
8227;BMP180;4154;48.810;9.012;2022-11-03T08:01:13;96946.00;;;7.90
8227;BMP180;4154;48.810;9.012;2022-11-03T08:04:33;96937.00;;;8.00
8227;BMP180;4154;48.810;9.012;2022-11-03T08:07:01;96939.00;;;8.10
8227;BMP180;4154;48.810;9.012;2022-11-03T08:09:28;96929.00;;;8.20
8227;BMP180;4154;48.810;9.012;2022-11-03T08:11:54;96929.00;;;8.20
8227;BMP180;4154;48.810;9.012;2022-11-03T08:14:50;96909.00;;;8.30
8227;BMP180;4154;48.810;9.012;2022-11-03T08:17:24;96912.00;;;8.40
8227;BMP180;4154;48.810;9.012;2022-11-03T08:20:21;96895.00;;;8.50
8227;BMP180;4154;48.810;9.012;2022-11-03T08:23:07;96902.00;;;8.60
8227;BMP180;4154;48.810;9.012;2022-11-03T08:25:55;96907.00;;;8.60
8227;BMP180;4154;48.810;9.012;2022-11-03T08:28:56;96907.00;;;8.70
8227;BMP180;4154;48.810;9.012;2022-11-03T08:34:46;96897.00;;;8.80
8227;BMP180;4154;48.810;9.012;2022-11-03T08:37:46;96893.00;;;8.90
8227;BMP180;4154;48.810;9.012;2022-11-03T08:40:20;96880.00;;;8.90
8227;BMP180;4154;48.810;9.012;2022-11-03T08:42:52;96885.00;;;8.90
8227;BMP180;4154;48.810;9.012;2022-11-03T08:45:32;96875.00;;;9.00
8227;BMP180;4154;48.810;9.012;2022-11-03T08:47:59;96875.00;;;9.10
8227;BMP180;4154;48.810;9.012;2022-11-03T08:50:33;96874.00;;;9.10
8227;BMP180;4154;48.810;9.012;2022-11-03T08:53:02;96878.00;;;9.20
8227;BMP180;4154;48.810;9.012;2022-11-03T08:55:36;96873.00;;;9.20
8227;BMP180;4154;48.810;9.012;2022-11-03T08:58:27;96871.00;;;9.30
8227;BMP180;4154;48.810;9.012;2022-11-03T09:01:07;96871.00;;;9.40
8227;BMP180;4154;48.810;9.012;2022-11-03T09:03:54;96858.00;;;9.40
8227;BMP180;4154;48.810;9.012;2022-11-03T09:06:25;96858.00;;;9.50
8227;BMP180;4154;48.810;9.012;2022-11-03T09:08:59;96862.00;;;9.50
8227;BMP180;4154;48.810;9.012;2022-11-03T09:11:49;96854.00;;;9.60
8227;BMP180;4154;48.810;9.012;2022-11-03T09:14:23;96854.00;;;9.70
8227;BMP180;4154;48.810;9.012;2022-11-03T09:17:24;96850.00;;;9.80
8227;BMP180;4154;48.810;9.012;2022-11-03T09:20:20;96850.00;;;9.90
8227;BMP180;4154;48.810;9.012;2022-11-03T09:22:47;96850.00;;;9.90
8227;BMP180;4154;48.810;9.012;2022-11-03T09:25:29;96844.00;;;10.00
8227;BMP180;4154;48.810;9.012;2022-11-03T09:28:39;96833.00;;;10.10
8227;BMP180;4154;48.810;9.012;2022-11-03T09:34:54;96832.00;;;10.30
8227;BMP180;4154;48.810;9.012;2022-11-03T09:37:53;96833.00;;;10.40
8227;BMP180;4154;48.810;9.012;2022-11-03T09:40:41;96825.00;;;10.50
8227;BMP180;4154;48.810;9.012;2022-11-03T09:43:15;96820.00;;;10.50
8227;BMP180;4154;48.810;9.012;2022-11-03T09:46:11;96815.00;;;10.50
8227;BMP180;4154;48.810;9.012;2022-11-03T09:49:41;96812.00;;;10.70
8227;BMP180;4154;48.810;9.012;2022-11-03T09:52:21;96801.00;;;10.70
8227;BMP180;4154;48.810;9.012;2022-11-03T09:58:24;96797.00;;;10.80
8227;BMP180;4154;48.810;9.012;2022-11-03T10:01:07;96807.00;;;10.80
8227;BMP180;4154;48.810;9.012;2022-11-03T10:10:48;96789.00;;;11.00
8227;BMP180;4154;48.810;9.012;2022-11-03T10:13:59;96788.00;;;11.00
8227;BMP180;4154;48.810;9.012;2022-11-03T10:17:01;96790.00;;;11.00
8227;BMP180;4154;48.810;9.012;2022-11-03T10:19:45;96798.00;;;11.10
8227;BMP180;4154;48.810;9.012;2022-11-03T10:22:22;96774.00;;;11.10
8227;BMP180;4154;48.810;9.012;2022-11-03T10:24:49;96784.00;;;11.10
8227;BMP180;4154;48.810;9.012;2022-11-03T10:31:19;96773.00;;;11.30
8227;BMP180;4154;48.810;9.012;2022-11-03T10:33:54;96759.00;;;11.30
8227;BMP180;4154;48.810;9.012;2022-11-03T10:36:42;96753.00;;;11.30
8227;BMP180;4154;48.810;9.012;2022-11-03T10:39:38;96752.00;;;11.40
8227;BMP180;4154;48.810;9.012;2022-11-03T10:42:33;96755.00;;;11.40
8227;BMP180;4154;48.810;9.012;2022-11-03T10:45:20;96745.00;;;11.50
8227;BMP180;4154;48.810;9.012;2022-11-03T10:48:24;96740.00;;;11.50
8227;BMP180;4154;48.810;9.012;2022-11-03T10:51:13;96739.00;;;11.50
8227;BMP180;4154;48.810;9.012;2022-11-03T10:53:40;96734.00;;;11.60
8227;BMP180;4154;48.810;9.012;2022-11-03T10:56:09;96723.00;;;11.60
8227;BMP180;4154;48.810;9.012;2022-11-03T10:58:38;96730.00;;;11.60
8227;BMP180;4154;48.810;9.012;2022-11-03T11:01:07;96735.00;;;11.70
8227;BMP180;4154;48.810;9.012;2022-11-03T11:12:29;96690.00;;;11.80
8227;BMP180;4154;48.810;9.012;2022-11-03T11:19:20;96690.00;;;11.90
8227;BMP180;4154;48.810;9.012;2022-11-03T11:39:01;96653.00;;;12.30
8227;BMP180;4154;48.810;9.012;2022-11-03T15:33:46;96213.00;;;12.70
8227;BMP180;4154;48.810;9.012;2022-11-03T15:36:12;96204.00;;;12.70
8227;BMP180;4154;48.810;9.012;2022-11-03T20:59:11;95923.00;;;11.70
8227;BMP180;4154;48.810;9.012;2022-11-03T21:49:41;96007.00;;;11.60
8227;BMP180;4154;48.810;9.012;2022-11-03T21:52:20;96023.00;;;11.50
8227;BMP180;4154;48.810;9.012;2022-11-03T22:38:24;96057.00;;;11.30
8227;BMP180;4154;48.810;9.012;2022-11-03T22:51:48;96092.00;;;11.20
8227;BMP180;4154;48.810;9.012;2022-11-03T22:58:41;96082.00;;;11.10
8227;BMP180;4154;48.810;9.012;2022-11-03T23:45:07;96096.00;;;10.60
8227;BMP180;4154;48.810;9.012;2022-11-03T23:48:18;96101.00;;;10.60
